createdAt,value
2023-03-05T00:01:41.418Z,98893.81
2023-03-05T00:04:14.306Z,98900.40
2023-03-05T00:06:44.389Z,98889.13
2023-03-05T00:09:12.979Z,98887.11
2023-03-05T00:11:42.593Z,98888.11
2023-03-05T00:14:11.356Z,98889.61
2023-03-05T00:16:39.942Z,98889.91
2023-03-05T00:19:12.973Z,98891.92
2023-03-05T00:21:42.275Z,98894.86
2023-03-05T00:24:14.836Z,98897.39
2023-03-05T00:26:44.568Z,98897.33
2023-03-05T00:29:18.567Z,98902.39
2023-03-05T00:31:48.986Z,98902.48
2023-03-05T00:34:18.358Z,98903.31
2023-03-05T00:36:50.019Z,98903.47
2023-03-05T00:39:19.723Z,98904.09
2023-03-05T00:41:48.614Z,98907.77
2023-03-05T00:44:17.302Z,98903.52
2023-03-05T00:46:46.459Z,98904.92
2023-03-05T00:49:15.194Z,98904.16
2023-03-05T00:51:44.952Z,98902.58
2023-03-05T00:54:13.789Z,98901.94
2023-03-05T00:56:43.443Z,98906.31
2023-03-05T00:59:12.387Z,98910.45
2023-03-05T01:01:42.713Z,98908.17
2023-03-05T01:04:12.311Z,98911.61
2023-03-05T01:06:44.974Z,98910.58
2023-03-05T01:09:16.241Z,98913.56
2023-03-05T01:11:45.432Z,98914.89
2023-03-05T01:14:15.645Z,98916.92
2023-03-05T01:16:44.809Z,98911.71
2023-03-05T01:19:14.651Z,98915.20
2023-03-05T01:21:42.951Z,98927.70
2023-03-05T01:24:15.708Z,98924.48
2023-03-05T01:26:45.019Z,98927.86
2023-03-05T01:29:13.896Z,98926.55
2023-03-05T01:31:43.379Z,98923.69
2023-03-05T01:34:12.410Z,98929.38
2023-03-05T01:36:42.628Z,98929.09
2023-03-05T01:39:11.300Z,98927.64
2023-03-05T01:41:39.861Z,98932.21
2023-03-05T01:44:24.146Z,98936.83
2023-03-05T01:46:52.622Z,98938.57
2023-03-05T01:49:22.634Z,98941.23
2023-03-05T01:51:59.108Z,98945.39
2023-03-05T01:54:33.704Z,98947.40
2023-03-05T01:57:07.557Z,98950.54
2023-03-05T01:59:40.635Z,98956.08
2023-03-05T02:02:09.408Z,98963.10
2023-03-05T02:04:46.219Z,98959.94
2023-03-05T02:07:16.603Z,98961.18
2023-03-05T02:09:45.190Z,98971.54
2023-03-05T02:12:13.696Z,98968.45
2023-03-05T02:14:46.230Z,98974.99
2023-03-05T02:17:14.640Z,98973.80
2023-03-05T02:19:57.409Z,98978.79
2023-03-05T02:22:26.036Z,98974.64
2023-03-05T02:24:54.727Z,98971.73
2023-03-05T02:27:28.939Z,98975.93
2023-03-05T02:30:02.122Z,98978.38
2023-03-05T02:32:30.857Z,98984.14
2023-03-05T02:34:59.400Z,98987.17
2023-03-05T02:37:29.110Z,98982.88
2023-03-05T02:39:57.746Z,98982.10
2023-03-05T02:42:27.313Z,98981.50
2023-03-05T02:44:57.112Z,98985.38
2023-03-05T02:47:28.172Z,98985.23
2023-03-05T02:49:56.839Z,98982.33
2023-03-05T02:52:25.935Z,98981.48
2023-03-05T02:54:54.419Z,98981.96
2023-03-05T02:57:24.536Z,98976.38
2023-03-05T02:59:54.209Z,98975.21
2023-03-05T03:02:22.936Z,98973.23
2023-03-05T03:04:51.618Z,98970.75
2023-03-05T03:07:20.422Z,98970.91
2023-03-05T03:09:51.056Z,98965.92
2023-03-05T03:12:21.789Z,98963.20
2023-03-05T03:14:50.173Z,98971.70
2023-03-05T03:17:19.248Z,98966.04
2023-03-05T03:19:48.447Z,98969.98
2023-03-05T03:22:17.041Z,98976.08
2023-03-05T03:24:48.224Z,98976.27
2023-03-05T03:27:16.553Z,98983.98
2023-03-05T03:29:45.859Z,98993.00
2023-03-05T03:32:14.698Z,98993.39
2023-03-05T03:34:48.582Z,98995.26
2023-03-05T03:37:17.218Z,99002.96
2023-03-05T03:39:45.536Z,99007.66
2023-03-05T03:42:16.561Z,99008.02
2023-03-05T03:44:44.933Z,99010.04
2023-03-05T03:47:13.386Z,99015.09
2023-03-05T03:49:41.962Z,99018.71
2023-03-05T03:52:10.609Z,99020.33
2023-03-05T03:54:41.318Z,99020.87
2023-03-05T03:57:10.125Z,99021.98
2023-03-05T03:59:39.732Z,99021.86
2023-03-05T04:02:08.356Z,99022.66
2023-03-05T04:04:38.272Z,99027.27
2023-03-05T04:07:07.211Z,99026.95
2023-03-05T04:09:39.373Z,99030.53
2023-03-05T04:12:08.880Z,99031.33
2023-03-05T04:14:37.361Z,99035.48
2023-03-05T04:17:05.943Z,99038.60
2023-03-05T04:19:34.533Z,99040.11
2023-03-05T04:22:03.438Z,99042.60
2023-03-05T04:24:32.746Z,99051.77
2023-03-05T04:27:01.635Z,99055.20
2023-03-05T04:29:30.598Z,99055.25
2023-03-05T04:31:59.106Z,99053.70
2023-03-05T04:34:28.516Z,99050.82
2023-03-05T04:36:56.975Z,99053.64
2023-03-05T04:39:25.544Z,99060.79
2023-03-05T04:41:54.127Z,99056.80
2023-03-05T04:44:29.861Z,99060.27
2023-03-05T04:46:58.438Z,99058.08
2023-03-05T04:49:26.940Z,99060.03
2023-03-05T04:51:57.735Z,99060.38
2023-03-05T04:54:26.303Z,99066.05
2023-03-05T04:56:55.891Z,99065.91
2023-03-05T04:59:25.090Z,99071.98
2023-03-05T05:01:55.949Z,99074.53
2023-03-05T05:04:24.385Z,99078.27
2023-03-05T05:06:58.391Z,99081.10
2023-03-05T05:09:27.183Z,99083.59
2023-03-05T05:11:55.843Z,99081.64
2023-03-05T05:14:25.422Z,99086.86
2023-03-05T05:16:54.264Z,99087.13
2023-03-05T05:19:23.135Z,99092.63
2023-03-05T05:21:52.084Z,99099.15
2023-03-05T05:24:20.423Z,99101.67
2023-03-05T05:26:49.436Z,99106.15
2023-03-05T05:29:18.001Z,99109.79
2023-03-05T05:31:46.676Z,99109.57
2023-03-05T05:34:16.303Z,99119.22
2023-03-05T05:36:44.877Z,99117.34
2023-03-05T05:39:13.262Z,99121.46
